createdAt,value
2022-08-24T00:00:46.764Z,6.07
2022-08-24T00:03:15.669Z,6.07
2022-08-24T00:05:44.500Z,6.43
2022-08-24T00:08:13.520Z,5.90
2022-08-24T00:10:42.993Z,6.50
2022-08-24T00:13:12.240Z,5.95
2022-08-24T00:15:41.576Z,6.43
2022-08-24T00:18:12.225Z,6.30
2022-08-24T00:20:45.341Z,6.10
2022-08-24T00:23:14.401Z,6.00
2022-08-24T00:25:43.237Z,6.15
2022-08-24T00:28:12.472Z,6.18
2022-08-24T00:30:41.604Z,5.88
2022-08-24T00:33:11.748Z,6.20
2022-08-24T00:35:40.573Z,6.90
2022-08-24T00:38:09.559Z,5.97
2022-08-24T00:40:42.708Z,6.47
2022-08-24T00:43:12.658Z,6.27
2022-08-24T00:45:47.427Z,6.32
2022-08-24T00:48:23.116Z,6.40
2022-08-24T00:51:00.483Z,6.50
2022-08-24T00:53:35.980Z,5.80
2022-08-24T00:56:10.255Z,6.53
2022-08-24T00:58:46.294Z,6.40
2022-08-24T01:01:23.078Z,6.60
2022-08-24T01:03:56.981Z,6.67
2022-08-24T01:06:26.149Z,6.67
2022-08-24T01:08:56.594Z,6.27
2022-08-24T01:11:33.696Z,6.60
2022-08-24T01:14:05.407Z,6.85
2022-08-24T01:16:51.656Z,6.60
2022-08-24T01:19:34.298Z,6.60
2022-08-24T01:22:20.811Z,6.45
2022-08-24T01:24:51.352Z,6.50
2022-08-24T01:27:23.902Z,6.13
2022-08-24T01:30:00.011Z,6.43
2022-08-24T01:32:29.135Z,6.30
2022-08-24T01:34:58.856Z,6.57
2022-08-24T01:37:28.877Z,6.80
2022-08-24T01:40:00.626Z,6.17
2022-08-24T01:42:31.061Z,6.97
2022-08-24T01:44:59.779Z,6.67
2022-08-24T01:47:28.903Z,6.45
2022-08-24T01:49:59.140Z,6.80
2022-08-24T01:52:43.441Z,6.78
2022-08-24T01:55:22.502Z,6.45
2022-08-24T01:57:51.910Z,6.55
2022-08-24T02:00:20.876Z,6.57
2022-08-24T02:02:49.996Z,6.50
2022-08-24T02:05:19.369Z,6.82
2022-08-24T02:07:48.890Z,6.70
2022-08-24T02:10:20.233Z,6.97
2022-08-24T02:12:58.771Z,6.82
2022-08-24T02:15:31.615Z,7.00
2022-08-24T02:18:01.634Z,6.75
2022-08-24T02:20:30.585Z,7.03
2022-08-24T02:22:59.677Z,6.77
2022-08-24T02:25:30.874Z,6.63
2022-08-24T02:28:00.638Z,6.63
2022-08-24T02:30:32.291Z,7.03
2022-08-24T02:33:02.704Z,6.70
2022-08-24T02:35:32.734Z,6.33
2022-08-24T02:38:03.121Z,6.30
2022-08-24T02:40:34.868Z,6.73
2022-08-24T02:43:06.032Z,6.47
2022-08-24T02:45:39.940Z,6.87
2022-08-24T02:48:08.943Z,6.33
2022-08-24T02:50:42.725Z,6.17
2022-08-24T02:53:14.149Z,6.60
2022-08-24T02:55:45.550Z,6.80
2022-08-24T02:58:18.932Z,6.77
2022-08-24T03:00:50.416Z,6.73
2022-08-24T03:03:21.854Z,6.93
2022-08-24T03:05:50.722Z,6.93
2022-08-24T03:08:21.117Z,6.27
2022-08-24T03:10:51.369Z,7.00
2022-08-24T03:13:20.349Z,6.50
2022-08-24T03:15:49.348Z,6.77
2022-08-24T03:18:18.161Z,6.80
2022-08-24T03:20:55.327Z,6.87
2022-08-24T03:23:25.010Z,6.87
2022-08-24T03:25:56.495Z,7.00
2022-08-24T03:28:26.906Z,7.13
2022-08-24T03:30:57.095Z,7.17
2022-08-24T03:33:26.118Z,6.80
2022-08-24T03:35:55.419Z,7.50
2022-08-24T03:38:25.644Z,7.05
2022-08-24T03:40:55.868Z,7.17
2022-08-24T03:43:42.260Z,6.73
2022-08-24T03:46:12.589Z,6.88
2022-08-24T03:48:44.472Z,7.13
2022-08-24T03:51:17.866Z,7.50
2022-08-24T03:53:49.101Z,6.78
2022-08-24T03:56:19.835Z,7.13
2022-08-24T03:58:49.641Z,7.20
2022-08-24T04:01:19.742Z,7.10
2022-08-24T04:03:50.811Z,7.27
2022-08-24T04:06:21.984Z,7.23
2022-08-24T04:08:51.355Z,6.83
2022-08-24T04:11:28.228Z,6.97
2022-08-24T04:13:59.703Z,7.13
2022-08-24T04:16:30.646Z,6.93
2022-08-24T04:19:14.978Z,6.87
2022-08-24T04:21:44.621Z,7.27
2022-08-24T04:24:14.827Z,7.23
2022-08-24T04:26:46.185Z,6.90
2022-08-24T04:29:21.376Z,7.13
2022-08-24T04:31:54.004Z,7.77
2022-08-24T04:34:24.374Z,7.40
2022-08-24T04:36:53.420Z,7.00
2022-08-24T04:39:22.166Z,7.23
2022-08-24T04:42:14.724Z,6.90
2022-08-24T04:44:44.784Z,7.20
2022-08-24T04:47:15.672Z,7.03
2022-08-24T04:49:44.507Z,7.50
2022-08-24T04:52:13.435Z,7.93
2022-08-24T04:54:43.989Z,7.63
2022-08-24T04:57:19.790Z,7.77
2022-08-24T04:59:49.582Z,7.60
2022-08-24T05:02:18.969Z,6.90
2022-08-24T05:04:50.919Z,7.90
2022-08-24T05:07:20.149Z,8.23
2022-08-24T05:09:48.925Z,7.70
2022-08-24T05:12:23.459Z,7.60
2022-08-24T05:15:00.812Z,6.97
2022-08-24T05:17:32.537Z,7.50
2022-08-24T05:20:01.510Z,7.60
2022-08-24T05:22:32.622Z,7.80
2022-08-24T05:25:01.630Z,8.00
2022-08-24T05:27:33.949Z,7.97
2022-08-24T05:30:03.333Z,8.07
2022-08-24T05:32:32.269Z,7.93
2022-08-24T05:35:04.844Z,7.83
2022-08-24T05:37:37.157Z,7.87
2022-08-24T05:40:20.728Z,7.53
2022-08-24T05:42:55.908Z,8.57
2022-08-24T05:45:24.902Z,7.87
2022-08-24T05:47:53.889Z,8.07
2022-08-24T05:50:45.818Z,7.68
2022-08-24T05:53:15.754Z,8.03
2022-08-24T05:55:47.068Z,7.70
2022-08-24T05:58:23.160Z,8.33
2022-08-24T06:01:01.147Z,7.57
2022-08-24T06:03:29.909Z,7.97
2022-08-24T06:05:58.853Z,7.40
2022-08-24T06:08:27.729Z,7.75
2022-08-24T06:10:56.903Z,7.15
2022-08-24T06:13:27.119Z,7.13
2022-08-24T06:16:20.725Z,7.60
2022-08-24T06:18:51.321Z,7.68
2022-08-24T06:21:23.614Z,7.47
2022-08-24T06:23:53.627Z,7.93
2022-08-24T06:26:40.901Z,8.10
2022-08-24T06:29:12.542Z,8.13
2022-08-24T06:31:54.383Z,7.28
2022-08-24T06:34:26.929Z,8.10
2022-08-24T06:36:56.017Z,7.63
2022-08-24T06:39:27.842Z,7.75
2022-08-24T06:41:58.661Z,7.80
2022-08-24T06:44:34.299Z,8.93
2022-08-24T06:47:13.788Z,8.30
2022-08-24T06:49:42.860Z,7.72
2022-08-24T06:52:12.382Z,7.57
2022-08-24T06:54:41.529Z,7.60
2022-08-24T06:57:10.341Z,7.63
2022-08-24T06:59:43.172Z,7.70
2022-08-24T07:02:15.926Z,7.90
2022-08-24T07:04:46.208Z,7.10
2022-08-24T07:07:33.306Z,7.72
2022-08-24T07:10:03.335Z,9.25
2022-08-24T07:12:32.729Z,9.32
2022-08-24T07:15:02.893Z,9.88
2022-08-24T07:17:31.758Z,10.13
2022-08-24T07:20:00.527Z,10.00
2022-08-24T07:22:49.543Z,9.48
2022-08-24T07:25:19.359Z,9.93
2022-08-24T07:27:49.671Z,9.55
2022-08-24T07:30:27.945Z,10.68
2022-08-24T07:32:59.287Z,10.35
2022-08-24T07:35:32.450Z,10.73
2022-08-24T07:38:02.975Z,11.05
2022-08-24T07:40:36.460Z,11.00
2022-08-24T07:43:18.159Z,10.20
2022-08-24T07:45:52.430Z,12.15
2022-08-24T07:48:21.480Z,10.57
2022-08-24T07:50:53.309Z,11.43
2022-08-24T07:53:27.867Z,11.32
2022-08-24T07:56:01.318Z,11.00
2022-08-24T07:58:31.494Z,11.10
2022-08-24T08:01:02.466Z,11.82
2022-08-24T08:03:33.563Z,10.85
2022-08-24T08:06:11.179Z,10.90
2022-08-24T08:08:45.704Z,10.77
2022-08-24T08:11:14.815Z,11.23
2022-08-24T08:16:21.395Z,11.00
2022-08-24T08:18:56.501Z,10.75
2022-08-24T08:21:52.370Z,11.30
2022-08-24T08:24:21.204Z,12.27
2022-08-24T08:26:55.735Z,9.90
2022-08-24T08:29:32.895Z,10.52
2022-08-24T08:32:04.450Z,10.55
2022-08-24T08:34:34.154Z,9.57
2022-08-24T08:37:04.488Z,9.43
2022-08-24T08:39:33.729Z,10.15
2022-08-24T08:42:37.286Z,9.30
2022-08-24T08:45:42.536Z,8.95
2022-08-24T08:49:35.056Z,10.18
2022-08-24T08:52:41.477Z,10.32
2022-08-24T08:55:29.214Z,10.50
2022-08-24T08:58:29.844Z,9.90
2022-08-24T09:01:10.860Z,8.52
2022-08-24T09:04:48.727Z,8.75
2022-08-24T09:07:40.638Z,8.10
2022-08-24T09:10:51.946Z,9.50
2022-08-24T09:13:44.539Z,9.10
2022-08-24T09:16:39.090Z,8.00
2022-08-24T09:19:41.427Z,7.47
2022-08-24T09:22:15.898Z,8.18
2022-08-24T09:25:07.361Z,7.53
2022-08-24T09:28:30.088Z,7.30
2022-08-24T09:31:51.751Z,6.72
2022-08-24T09:34:37.662Z,7.72
2022-08-24T09:37:31.898Z,6.85
2022-08-24T09:40:27.214Z,7.32
2022-08-24T09:43:53.472Z,8.15
2022-08-24T09:47:23.529Z,7.97
2022-08-24T09:50:35.394Z,8.35
2022-08-24T09:53:46.538Z,8.90
2022-08-24T09:56:53.823Z,7.97
2022-08-24T09:59:54.276Z,8.45
2022-08-24T10:02:50.482Z,7.80
2022-08-24T10:05:37.015Z,8.35
2022-08-24T10:08:21.406Z,8.68
2022-08-24T10:11:00.085Z,8.90
2022-08-24T10:13:56.650Z,9.40
2022-08-24T10:16:40.015Z,8.15
2022-08-24T10:19:39.413Z,8.38
2022-08-24T10:22:32.595Z,7.82
2022-08-24T10:25:32.546Z,7.40
2022-08-24T10:28:41.858Z,7.95
2022-08-24T10:31:14.523Z,7.15
2022-08-24T10:34:04.386Z,7.38
2022-08-24T10:37:03.685Z,7.80
2022-08-24T10:40:13.290Z,7.85
2022-08-24T10:43:35.894Z,7.18
2022-08-24T10:46:40.609Z,7.97
2022-08-24T10:50:21.137Z,8.77
2022-08-24T10:53:21.039Z,7.50
2022-08-24T10:56:05.681Z,8.13
2022-08-24T10:58:53.356Z,7.88
2022-08-24T11:01:31.303Z,6.70
2022-08-24T11:04:09.812Z,7.38
2022-08-24T11:06:41.839Z,7.50
2022-08-24T11:09:19.762Z,7.57
2022-08-24T11:11:52.450Z,8.73
2022-08-24T11:14:32.096Z,7.88
2022-08-24T11:17:18.193Z,7.35
2022-08-24T11:19:47.450Z,8.95
2022-08-24T11:23:01.248Z,8.82
2022-08-24T11:25:33.534Z,9.30
2022-08-24T11:28:11.081Z,9.27
2022-08-24T11:30:42.349Z,9.07
2022-08-24T11:33:30.948Z,9.00
2022-08-24T11:36:01.563Z,9.13
2022-08-24T11:38:35.028Z,9.80
2022-08-24T11:41:14.587Z,8.93
2022-08-24T11:44:02.086Z,8.65
2022-08-24T11:46:46.892Z,8.55
2022-08-24T11:49:34.311Z,8.88
2022-08-24T11:52:12.876Z,9.52
2022-08-24T11:54:58.517Z,9.23
2022-08-24T11:57:47.579Z,9.38
2022-08-24T12:00:22.037Z,9.63
2022-08-24T12:03:02.696Z,10.07
2022-08-24T12:05:45.885Z,9.70
2022-08-24T12:08:28.741Z,9.98
2022-08-24T12:11:09.771Z,10.88
2022-08-24T12:13:49.298Z,10.38
2022-08-24T12:16:31.418Z,9.70
2022-08-24T12:19:10.304Z,9.25
2022-08-24T12:21:45.376Z,10.93
2022-08-24T12:24:21.340Z,10.32
2022-08-24T12:27:00.677Z,9.35
2022-08-24T12:29:38.261Z,9.52
2022-08-24T12:32:16.449Z,10.02
2022-08-24T12:34:58.850Z,10.50
2022-08-24T12:37:35.041Z,9.80
2022-08-24T12:40:15.322Z,10.50
2022-08-24T12:42:52.755Z,10.60
2022-08-24T12:45:24.418Z,9.55
2022-08-24T12:48:02.705Z,8.93
2022-08-24T12:50:45.481Z,9.50
2022-08-24T12:53:50.055Z,9.60
2022-08-24T12:56:57.915Z,9.60
2022-08-24T12:59:33.318Z,9.23
2022-08-24T13:02:08.373Z,9.38
2022-08-24T13:04:55.572Z,8.57
2022-08-24T13:07:32.981Z,9.00
2022-08-24T13:10:14.680Z,9.30
2022-08-24T13:13:13.462Z,9.52
2022-08-24T13:16:03.625Z,9.25
2022-08-24T13:19:33.902Z,10.25
2022-08-24T13:22:49.061Z,8.55
2022-08-24T13:25:53.610Z,8.32
2022-08-24T13:28:56.853Z,7.75
2022-08-24T13:31:34.683Z,8.13
2022-08-24T13:34:44.417Z,7.40
2022-08-24T13:37:19.088Z,7.82
2022-08-24T13:40:10.029Z,8.13
2022-08-24T13:43:11.754Z,8.18
2022-08-24T13:45:53.713Z,7.55
2022-08-24T13:48:45.172Z,8.48
2022-08-24T13:51:34.759Z,8.98
2022-08-24T13:54:31.507Z,9.13
2022-08-24T13:57:30.865Z,8.88
2022-08-24T14:00:34.333Z,9.05
2022-08-24T14:03:30.289Z,8.90
2022-08-24T14:06:21.368Z,9.23
2022-08-24T14:09:04.834Z,8.20
2022-08-24T14:12:07.432Z,7.75
2022-08-24T14:15:02.533Z,8.48
2022-08-24T14:17:53.895Z,8.85
2022-08-24T14:21:09.131Z,7.18
2022-08-24T14:23:58.305Z,6.82
2022-08-24T14:27:10.489Z,8.38
2022-08-24T14:29:45.462Z,6.90
2022-08-24T14:32:32.751Z,7.10
2022-08-24T14:35:37.419Z,7.28
2022-08-24T14:38:50.668Z,6.63
2022-08-24T14:41:50.297Z,7.18
2022-08-24T14:44:54.356Z,7.53
2022-08-24T14:47:42.028Z,7.50
2022-08-24T14:50:21.693Z,7.50
2022-08-24T14:53:10.742Z,7.57
2022-08-24T14:55:56.968Z,7.85
2022-08-24T14:58:44.830Z,7.35
2022-08-24T15:01:42.517Z,8.23
2022-08-24T15:04:44.494Z,7.63
2022-08-24T15:07:32.645Z,8.32
2022-08-24T15:10:05.761Z,7.63
2022-08-24T15:12:42.739Z,8.02
2022-08-24T15:15:21.742Z,7.68
2022-08-24T15:18:06.406Z,8.05
2022-08-24T15:20:58.015Z,8.30
2022-08-24T15:23:57.246Z,8.88
2022-08-24T15:26:46.074Z,8.73
2022-08-24T15:29:21.498Z,8.90
2022-08-24T15:32:07.987Z,8.82
2022-08-24T15:34:45.583Z,8.63
2022-08-24T15:37:17.059Z,9.73
2022-08-24T15:39:45.898Z,9.35
2022-08-24T15:42:16.909Z,8.65
2022-08-24T15:44:50.220Z,9.20
2022-08-24T15:47:28.894Z,8.60
2022-08-24T15:50:02.952Z,8.82
2022-08-24T15:52:51.885Z,9.30
2022-08-24T15:55:47.894Z,9.05
2022-08-24T15:58:42.430Z,9.45
2022-08-24T16:01:42.332Z,9.43
2022-08-24T16:04:35.428Z,10.25
2022-08-24T16:07:05.930Z,10.27
2022-08-24T16:09:38.868Z,11.52
2022-08-24T16:12:16.435Z,13.27
2022-08-24T16:14:50.338Z,11.27
2022-08-24T16:17:35.987Z,11.85
2022-08-24T16:20:12.399Z,11.98
2022-08-24T16:22:57.015Z,12.40
2022-08-24T16:25:32.845Z,13.27
2022-08-24T16:28:12.768Z,13.02
2022-08-24T16:30:52.599Z,13.27
2022-08-24T16:33:45.730Z,13.50
2022-08-24T16:36:18.063Z,13.90
2022-08-24T16:38:51.511Z,14.20
2022-08-24T16:41:26.139Z,14.35
2022-08-24T16:43:55.164Z,14.98
2022-08-24T16:46:26.934Z,14.98
2022-08-24T16:48:55.988Z,14.70
2022-08-24T16:51:26.263Z,15.70
2022-08-24T16:53:58.815Z,16.60
2022-08-24T16:56:30.238Z,14.75
2022-08-24T16:59:00.488Z,15.55
2022-08-24T17:01:30.585Z,14.25
2022-08-24T17:03:59.547Z,15.82
2022-08-24T17:06:28.572Z,14.70
2022-08-24T17:09:00.570Z,15.25
2022-08-24T17:11:29.848Z,14.60
2022-08-24T17:13:58.640Z,14.93
2022-08-24T17:16:28.999Z,15.30
2022-08-24T17:19:01.180Z,14.50
2022-08-24T17:21:30.337Z,14.55
2022-08-24T17:24:01.769Z,15.98
2022-08-24T17:26:33.028Z,14.48
2022-08-24T17:29:09.527Z,15.50
2022-08-24T17:31:40.679Z,16.63
2022-08-24T17:34:11.503Z,15.15
2022-08-24T17:36:43.694Z,15.90
2022-08-24T17:39:16.707Z,14.88
2022-08-24T17:41:47.135Z,15.35
2022-08-24T17:44:25.175Z,15.48
2022-08-24T17:46:59.085Z,15.95
2022-08-24T17:49:30.281Z,16.45
2022-08-24T17:52:28.003Z,16.27
2022-08-24T17:55:14.615Z,15.85
2022-08-24T17:57:49.039Z,16.00
2022-08-24T18:00:20.714Z,16.50
2022-08-24T18:02:52.097Z,16.05
2022-08-24T18:05:22.231Z,16.60
2022-08-24T18:07:58.940Z,16.10
2022-08-24T18:10:32.773Z,16.27
2022-08-24T18:13:04.216Z,16.70
2022-08-24T18:15:40.305Z,16.08
2022-08-24T18:18:12.536Z,16.73
2022-08-24T18:20:43.864Z,16.35
2022-08-24T18:23:14.394Z,16.05
2022-08-24T18:25:53.783Z,15.93
2022-08-24T18:28:24.718Z,15.48
2022-08-24T18:30:54.248Z,16.92
2022-08-24T18:33:24.935Z,16.90
2022-08-24T18:35:54.692Z,16.83
2022-08-24T18:38:27.293Z,16.38
2022-08-24T18:40:58.766Z,16.73
2022-08-24T18:43:31.295Z,17.13
2022-08-24T18:46:06.908Z,17.00
2022-08-24T18:48:36.434Z,17.55
2022-08-24T18:51:07.286Z,18.30
2022-08-24T18:53:36.999Z,17.35
2022-08-24T18:56:12.453Z,17.67
2022-08-24T18:58:42.405Z,17.20
2022-08-24T19:01:13.331Z,17.23
2022-08-24T19:03:43.639Z,17.65
2022-08-24T19:06:12.488Z,16.60
2022-08-24T19:08:45.155Z,17.60
2022-08-24T19:11:19.864Z,17.50
2022-08-24T19:13:49.802Z,17.05
2022-08-24T19:16:18.881Z,16.20
2022-08-24T19:18:51.122Z,17.30
2022-08-24T19:21:21.155Z,17.08
2022-08-24T19:23:51.041Z,16.35
2022-08-24T19:26:25.282Z,17.05
2022-08-24T19:28:54.982Z,17.42
2022-08-24T19:31:30.049Z,17.90
2022-08-24T19:34:03.431Z,17.73
2022-08-24T19:36:33.226Z,17.08
2022-08-24T19:39:03.854Z,17.55
2022-08-24T19:41:39.802Z,17.90
2022-08-24T19:44:32.584Z,17.33
2022-08-24T19:47:02.458Z,18.92
2022-08-24T19:49:34.875Z,17.70
2022-08-24T19:52:04.610Z,17.55
2022-08-24T19:54:38.165Z,18.55
2022-08-24T19:57:41.503Z,17.85
2022-08-24T20:00:35.149Z,17.63
2022-08-24T20:03:06.295Z,18.40
2022-08-24T20:05:37.625Z,17.70
2022-08-24T20:08:06.826Z,16.63
2022-08-24T20:10:35.964Z,17.17
2022-08-24T20:13:06.758Z,16.20
2022-08-24T20:15:36.457Z,17.75
2022-08-24T20:18:05.826Z,17.50
2022-08-24T20:20:34.980Z,18.05
2022-08-24T20:23:06.428Z,17.60
2022-08-24T20:25:37.437Z,17.33
2022-08-24T20:30:57.680Z,16.48
2022-08-24T20:33:28.068Z,16.50
2022-08-24T20:35:58.060Z,16.27
2022-08-24T20:38:29.389Z,16.90
2022-08-24T20:41:02.137Z,16.17
2022-08-24T20:43:32.423Z,16.77
2022-08-24T20:46:01.861Z,16.40
2022-08-24T20:48:34.129Z,17.20
2022-08-24T20:51:03.448Z,16.83
2022-08-24T20:53:32.246Z,15.77
2022-08-24T20:56:08.585Z,16.40
2022-08-24T20:58:40.666Z,16.13
2022-08-24T21:01:10.211Z,15.60
2022-08-24T21:03:39.413Z,15.93
2022-08-24T21:06:09.946Z,15.60
2022-08-24T21:08:38.902Z,15.70
2022-08-24T21:11:07.761Z,15.73
2022-08-24T21:13:37.907Z,16.60
2022-08-24T21:16:07.675Z,15.98
2022-08-24T21:18:37.319Z,15.82
2022-08-24T21:21:06.741Z,16.17
2022-08-24T21:23:36.197Z,15.93
2022-08-24T21:26:08.878Z,15.25
2022-08-24T21:28:43.560Z,14.77
2022-08-24T21:31:12.532Z,15.15
2022-08-24T21:33:58.745Z,15.07
2022-08-24T21:36:31.959Z,15.25
2022-08-24T21:39:00.833Z,14.38
2022-08-24T21:41:29.960Z,15.65
2022-08-24T21:44:00.635Z,14.13
2022-08-24T21:46:34.940Z,14.73
2022-08-24T21:49:04.011Z,14.82
2022-08-24T21:51:33.063Z,14.60
2022-08-24T21:54:02.025Z,14.43
2022-08-24T21:56:34.532Z,14.88
2022-08-24T21:59:05.049Z,14.68
2022-08-24T22:01:34.052Z,14.52
2022-08-24T22:04:03.074Z,15.23
2022-08-24T22:06:33.622Z,14.98
2022-08-24T22:09:04.815Z,14.10
2022-08-24T22:11:33.691Z,14.38
2022-08-24T22:14:05.431Z,14.13
2022-08-24T22:16:36.895Z,14.90
2022-08-24T22:19:06.295Z,14.23
2022-08-24T22:21:36.415Z,13.85
2022-08-24T22:24:05.952Z,13.50
2022-08-24T22:26:36.801Z,13.13
2022-08-24T22:29:09.949Z,13.73
2022-08-24T22:31:42.492Z,13.18
2022-08-24T22:34:16.581Z,12.88
2022-08-24T22:36:50.542Z,12.80
2022-08-24T22:39:19.760Z,13.68
2022-08-24T22:41:48.552Z,13.13
2022-08-24T22:44:22.412Z,13.55
2022-08-24T22:46:54.089Z,13.38
2022-08-24T22:49:26.258Z,12.82
2022-08-24T22:51:55.591Z,13.32
2022-08-24T22:54:26.644Z,13.70
2022-08-24T22:56:58.397Z,13.05
2022-08-24T22:59:31.807Z,13.00
2022-08-24T23:02:00.493Z,13.55
2022-08-24T23:04:33.250Z,13.35
2022-08-24T23:07:03.170Z,13.20
2022-08-24T23:09:44.069Z,12.50
2022-08-24T23:12:19.815Z,12.10
2022-08-24T23:14:51.482Z,12.43
2022-08-24T23:17:22.312Z,13.18
2022-08-24T23:20:05.878Z,11.82
2022-08-24T23:22:38.928Z,12.00
2022-08-24T23:25:10.553Z,12.13
2022-08-24T23:27:39.669Z,11.25
2022-08-24T23:30:15.142Z,11.60
2022-08-24T23:32:44.193Z,11.63
2022-08-24T23:35:13.167Z,11.82
2022-08-24T23:37:42.296Z,12.15
2022-08-24T23:40:12.422Z,11.83
2022-08-24T23:42:41.168Z,11.87
2022-08-24T23:45:13.107Z,12.27
2022-08-24T23:47:42.210Z,12.35
2022-08-24T23:50:12.021Z,11.60
2022-08-24T23:52:41.936Z,10.80
2022-08-24T23:55:21.190Z,11.40
2022-08-24T23:57:52.381Z,11.27
